createdAt,value
2023-02-22T00:01:47.419Z,88.87
2023-02-22T00:04:16.057Z,88.65
2023-02-22T00:06:42.599Z,88.73
2023-02-22T00:09:10.397Z,88.78
2023-02-22T00:11:38.597Z,88.75
2023-02-22T00:14:05.806Z,88.37
2023-02-22T00:16:32.398Z,88.53
2023-02-22T00:18:59.018Z,88.55
2023-02-22T00:21:25.687Z,88.27
2023-02-22T00:23:54.694Z,88.13
2023-02-22T00:26:23.481Z,88.36
2023-02-22T00:28:51.207Z,88.87
2023-02-22T00:31:18.896Z,89.14
2023-02-22T00:33:45.801Z,88.58
2023-02-22T00:36:13.616Z,88.58
2023-02-22T00:38:41.229Z,88.57
2023-02-22T00:41:07.795Z,88.53
2023-02-22T00:43:34.834Z,89.14
2023-02-22T00:46:01.454Z,89.03
2023-02-22T00:48:28.558Z,88.69
2023-02-22T00:50:55.495Z,89.16
2023-02-22T00:53:24.307Z,88.98
2023-02-22T00:55:50.848Z,89.32
2023-02-22T00:58:18.749Z,89.30
2023-02-22T01:00:45.623Z,89.35
2023-02-22T01:03:15.054Z,89.91
2023-02-22T01:05:41.954Z,89.99
2023-02-22T01:08:12.198Z,90.28
2023-02-22T01:10:39.546Z,90.32
2023-02-22T01:13:09.118Z,90.47
2023-02-22T01:15:37.651Z,90.52
2023-02-22T01:18:05.267Z,90.29
2023-02-22T01:20:32.505Z,90.45
2023-02-22T01:23:01.298Z,90.28
2023-02-22T01:25:28.656Z,90.93
2023-02-22T01:27:56.807Z,90.76
2023-02-22T01:30:25.760Z,90.78
2023-02-22T01:32:52.992Z,91.17
2023-02-22T01:35:23.130Z,90.96
2023-02-22T01:37:49.653Z,90.80
2023-02-22T01:40:34.641Z,91.05
2023-02-22T01:43:15.532Z,90.91
2023-02-22T01:46:08.462Z,91.05
2023-02-22T01:48:47.417Z,91.11
2023-02-22T01:51:20.783Z,91.51
2023-02-22T01:54:03.793Z,91.51
2023-02-22T01:56:33.040Z,91.53
2023-02-22T01:59:02.833Z,91.48
2023-02-22T02:01:29.677Z,91.54
2023-02-22T02:04:00.065Z,91.74
2023-02-22T02:06:28.560Z,92.13
2023-02-22T02:09:05.088Z,92.16
2023-02-22T02:11:32.507Z,92.69
2023-02-22T02:13:59.729Z,92.75
2023-02-22T02:16:35.675Z,93.08
2023-02-22T02:19:03.370Z,93.19
2023-02-22T02:22:04.035Z,93.60
2023-02-22T02:24:50.395Z,93.42
2023-02-22T02:27:25.871Z,93.36
2023-02-22T02:30:13.289Z,94.01
2023-02-22T02:32:43.292Z,94.43
2023-02-22T02:35:34.525Z,94.25
2023-02-22T02:38:22.964Z,93.88
2023-02-22T02:40:58.722Z,93.94
2023-02-22T02:43:43.597Z,93.62
2023-02-22T02:46:21.474Z,93.70
2023-02-22T02:48:57.393Z,94.11
2023-02-22T02:51:28.028Z,93.82
2023-02-22T02:53:54.886Z,93.96
2023-02-22T02:56:23.503Z,94.29
2023-02-22T02:58:54.143Z,94.20
2023-02-22T03:01:44.799Z,93.96
2023-02-22T03:04:20.517Z,94.00
2023-02-22T03:06:57.047Z,94.20
2023-02-22T03:09:35.314Z,94.28
2023-02-22T03:12:39.931Z,94.31
2023-02-22T03:15:22.031Z,94.86
2023-02-22T03:17:56.965Z,94.78
2023-02-22T03:20:43.516Z,95.18
2023-02-22T03:23:21.041Z,94.78
2023-02-22T03:25:52.222Z,95.03
2023-02-22T03:28:20.472Z,95.24
2023-02-22T03:30:50.695Z,95.38
2023-02-22T03:33:39.795Z,95.68
2023-02-22T03:36:16.225Z,95.92
2023-02-22T03:38:44.361Z,96.42
2023-02-22T03:41:11.679Z,96.48
2023-02-22T03:43:41.722Z,96.45
2023-02-22T03:46:09.658Z,96.77
2023-02-22T03:48:44.147Z,96.60
2023-02-22T03:51:16.704Z,96.74
2023-02-22T03:53:48.179Z,96.94
2023-02-22T03:56:20.259Z,96.80
2023-02-22T03:58:50.233Z,96.67
2023-02-22T04:01:17.551Z,96.88
2023-02-22T04:03:44.618Z,97.24
2023-02-22T04:06:11.633Z,96.97
2023-02-22T04:08:38.167Z,97.20
2023-02-22T04:11:04.785Z,97.47
2023-02-22T04:13:31.351Z,97.53
2023-02-22T04:15:57.986Z,97.30
2023-02-22T04:18:24.504Z,98.20
2023-02-22T04:20:51.750Z,97.96
2023-02-22T04:23:18.367Z,98.28
2023-02-22T04:25:44.862Z,98.13
2023-02-22T04:28:11.657Z,98.20
2023-02-22T04:30:38.259Z,98.25
2023-02-22T04:33:04.839Z,98.32
2023-02-22T04:35:33.064Z,98.51
2023-02-22T04:38:01.614Z,98.00
2023-02-22T04:40:28.156Z,98.51
2023-02-22T04:42:54.817Z,98.64
2023-02-22T04:45:21.445Z,98.34
2023-02-22T04:47:48.005Z,98.00
2023-02-22T04:50:14.847Z,98.10
2023-02-22T04:52:41.390Z,97.92
2023-02-22T04:55:08.368Z,98.53
2023-02-22T04:57:34.888Z,98.41
2023-02-22T05:00:01.828Z,98.17
2023-02-22T05:02:28.550Z,98.51
2023-02-22T05:04:55.223Z,98.10
2023-02-22T05:07:21.938Z,98.18
2023-02-22T05:09:48.466Z,98.28
2023-02-22T05:12:15.268Z,98.55
2023-02-22T05:14:42.360Z,98.81
2023-02-22T05:17:09.023Z,98.63
2023-02-22T05:19:35.670Z,98.45
2023-02-22T05:22:02.237Z,98.36
2023-02-22T05:24:28.805Z,98.73
2023-02-22T05:26:55.392Z,98.65
2023-02-22T05:29:21.878Z,98.21
2023-02-22T05:31:48.508Z,99.34
2023-02-22T05:34:15.790Z,98.47
2023-02-22T05:36:42.669Z,98.58
2023-02-22T05:39:09.181Z,98.90
2023-02-22T05:41:35.728Z,98.60
2023-02-22T05:44:03.058Z,98.48
2023-02-22T05:46:29.639Z,98.32
2023-02-22T05:48:56.194Z,98.77
2023-02-22T05:51:23.272Z,98.74
2023-02-22T05:53:52.169Z,98.36
2023-02-22T05:56:26.470Z,98.46
2023-02-22T05:58:53.333Z,98.79
2023-02-22T06:01:20.759Z,98.95
2023-02-22T06:03:49.673Z,98.46
2023-02-22T06:06:16.509Z,99.11
2023-02-22T06:08:43.332Z,98.88
2023-02-22T06:11:10.417Z,98.33
2023-02-22T06:13:37.022Z,99.03
2023-02-22T06:16:04.421Z,98.81
2023-02-22T06:18:31.308Z,98.54
2023-02-22T06:20:59.184Z,98.32
2023-02-22T06:23:26.865Z,98.67
2023-02-22T06:25:53.416Z,98.46
2023-02-22T06:28:19.914Z,98.61
2023-02-22T06:30:46.480Z,98.53
2023-02-22T06:33:13.041Z,98.81
2023-02-22T06:35:39.639Z,98.70
2023-02-22T06:38:06.276Z,98.88
2023-02-22T06:40:32.854Z,98.28
2023-02-22T06:43:00.001Z,97.97
2023-02-22T06:45:26.731Z,98.48
2023-02-22T06:47:53.322Z,97.85
2023-02-22T06:50:24.182Z,98.54
2023-02-22T06:52:53.056Z,97.93
2023-02-22T06:55:25.526Z,98.32
2023-02-22T06:57:52.347Z,97.64
2023-02-22T07:00:20.782Z,98.09
2023-02-22T07:02:50.855Z,97.87
2023-02-22T07:05:20.106Z,97.69
2023-02-22T07:07:48.029Z,98.15
2023-02-22T07:10:41.172Z,97.98
2023-02-22T07:13:08.725Z,98.06
2023-02-22T07:15:35.855Z,97.79
2023-02-22T07:18:02.443Z,97.17
2023-02-22T07:20:30.409Z,97.33
2023-02-22T07:22:56.935Z,97.86
2023-02-22T07:25:23.846Z,97.06
2023-02-22T07:27:52.381Z,97.09
2023-02-22T07:30:20.707Z,97.32
2023-02-22T07:32:47.315Z,97.83
2023-02-22T07:35:36.940Z,97.22
2023-02-22T07:38:08.397Z,97.04
2023-02-22T07:40:35.971Z,97.18
2023-02-22T07:43:15.150Z,97.21
2023-02-22T07:45:42.587Z,97.47
2023-02-22T07:48:09.324Z,97.50
2023-02-22T07:50:36.152Z,97.37
2023-02-22T07:53:05.360Z,97.29
2023-02-22T07:55:33.135Z,96.72
2023-02-22T07:58:02.040Z,96.94
2023-02-22T08:00:33.780Z,97.09
2023-02-22T08:03:02.284Z,96.76
2023-02-22T08:05:30.182Z,96.59
2023-02-22T08:07:56.820Z,96.42
2023-02-22T08:10:25.069Z,96.13
2023-02-22T08:12:52.152Z,96.44
2023-02-22T08:15:21.639Z,96.18
2023-02-22T08:17:48.238Z,96.20
2023-02-22T08:20:14.839Z,95.90
2023-02-22T08:22:44.510Z,96.13
2023-02-22T08:25:12.289Z,95.44
2023-02-22T08:27:39.258Z,95.69
2023-02-22T08:30:06.352Z,94.66
2023-02-22T08:32:33.531Z,94.49
2023-02-22T08:35:01.253Z,94.63
2023-02-22T08:37:28.122Z,94.21
2023-02-22T08:39:56.153Z,93.97
2023-02-22T08:42:22.891Z,93.10
2023-02-22T08:44:49.594Z,92.82
2023-02-22T08:47:16.105Z,92.44
2023-02-22T08:49:42.625Z,92.43
2023-02-22T08:52:09.447Z,92.42
2023-02-22T08:54:35.966Z,91.73
2023-02-22T08:57:02.502Z,91.48
2023-02-22T08:59:29.197Z,90.74
2023-02-22T09:01:55.761Z,90.79
2023-02-22T09:04:22.357Z,89.18
2023-02-22T09:06:52.014Z,87.95
2023-02-22T09:09:21.390Z,87.65
2023-02-22T09:11:50.990Z,88.07
2023-02-22T09:14:19.297Z,87.72
2023-02-22T09:16:45.959Z,88.35
2023-02-22T09:19:12.510Z,88.23
2023-02-22T09:21:40.335Z,87.55
2023-02-22T09:24:08.777Z,87.36
2023-02-22T09:26:42.756Z,86.58
2023-02-22T09:29:12.658Z,86.10
2023-02-22T09:31:40.486Z,86.84
2023-02-22T09:34:14.094Z,86.89
2023-02-22T09:36:43.987Z,85.93
2023-02-22T09:39:11.354Z,85.45
2023-02-22T09:42:09.439Z,85.18
2023-02-22T09:44:43.910Z,85.74
2023-02-22T09:47:18.312Z,85.40
2023-02-22T09:49:57.487Z,85.74
2023-02-22T09:52:32.441Z,86.00
2023-02-22T09:55:23.298Z,86.06
2023-02-22T09:57:51.634Z,86.14
2023-02-22T10:00:22.798Z,86.49
2023-02-22T10:03:08.876Z,85.92
2023-02-22T10:05:41.890Z,85.72
2023-02-22T10:08:14.268Z,85.33
2023-02-22T10:10:46.050Z,85.10
2023-02-22T10:13:48.659Z,83.99
2023-02-22T10:16:27.043Z,84.16
2023-02-22T10:19:31.636Z,83.98
2023-02-22T10:22:19.097Z,83.24
2023-02-22T10:24:57.198Z,83.51
2023-02-22T10:28:00.374Z,82.63
2023-02-22T10:30:30.898Z,82.69
2023-02-22T10:33:17.007Z,82.60
2023-02-22T10:35:46.853Z,82.00
2023-02-22T10:38:18.220Z,82.45
2023-02-22T10:41:23.184Z,81.68
2023-02-22T10:43:50.422Z,80.08
2023-02-22T10:46:19.519Z,79.54
2023-02-22T10:48:50.835Z,79.82
2023-02-22T10:51:17.430Z,80.07
2023-02-22T10:53:44.406Z,79.02
2023-02-22T10:56:23.113Z,79.98
2023-02-22T10:58:59.595Z,81.03
2023-02-22T11:01:32.115Z,80.89
2023-02-22T11:04:15.401Z,79.15
2023-02-22T11:06:44.678Z,79.52
2023-02-22T11:09:18.425Z,79.14
2023-02-22T11:11:47.288Z,79.57
2023-02-22T11:14:26.641Z,78.35
2023-02-22T11:16:54.455Z,77.95
2023-02-22T11:19:25.858Z,78.56
2023-02-22T11:21:56.277Z,78.02
2023-02-22T11:24:24.244Z,78.43
2023-02-22T11:26:54.215Z,77.86
2023-02-22T11:29:22.338Z,77.30
2023-02-22T11:31:52.246Z,77.00
2023-02-22T11:34:38.161Z,77.37
2023-02-22T11:37:29.387Z,76.34
2023-02-22T11:40:19.843Z,76.07
2023-02-22T11:42:47.042Z,76.44
2023-02-22T11:45:21.181Z,75.58
2023-02-22T11:47:53.664Z,76.51
2023-02-22T11:50:46.822Z,76.68
2023-02-22T11:53:22.178Z,76.57
2023-02-22T11:56:08.035Z,76.28
2023-02-22T11:58:54.289Z,75.94
2023-02-22T12:01:28.480Z,76.02
2023-02-22T12:04:15.834Z,76.48
2023-02-22T12:07:08.356Z,75.42
2023-02-22T12:09:53.037Z,75.01
2023-02-22T12:12:27.948Z,75.62
2023-02-22T12:15:05.990Z,76.09
2023-02-22T12:17:48.235Z,74.68
2023-02-22T12:23:00.818Z,74.86
2023-02-22T12:25:33.359Z,75.58
2023-02-22T12:28:24.656Z,75.12
2023-02-22T12:31:20.499Z,75.19
2023-02-22T12:33:54.262Z,75.90
2023-02-22T12:36:25.378Z,76.91
2023-02-22T12:38:58.335Z,77.36
2023-02-22T12:41:33.968Z,77.95
2023-02-22T12:44:05.468Z,77.25
2023-02-22T12:46:44.859Z,77.65
2023-02-22T12:49:19.512Z,77.74
2023-02-22T12:51:52.753Z,77.68
2023-02-22T12:54:26.066Z,77.09
2023-02-22T12:57:17.591Z,77.41
2023-02-22T12:59:53.833Z,78.08
2023-02-22T13:03:01.209Z,78.28
2023-02-22T13:05:33.480Z,77.48
2023-02-22T13:08:29.132Z,78.10
2023-02-22T13:11:18.229Z,77.61
2023-02-22T13:14:09.276Z,77.09
2023-02-22T13:16:52.634Z,77.59
2023-02-22T13:19:45.318Z,76.91
2023-02-22T13:22:29.841Z,77.20
2023-02-22T13:25:09.698Z,77.50
2023-02-22T13:27:43.847Z,76.43
2023-02-22T13:30:18.542Z,77.14
2023-02-22T13:33:25.969Z,77.94
2023-02-22T13:35:55.573Z,78.18
2023-02-22T13:38:33.968Z,77.57
2023-02-22T13:41:09.578Z,77.69
2023-02-22T13:43:55.015Z,77.93
2023-02-22T13:46:40.304Z,77.14
2023-02-22T13:49:12.643Z,78.25
2023-02-22T13:51:53.739Z,78.18
2023-02-22T13:54:34.286Z,78.32
2023-02-22T13:57:03.052Z,77.59
2023-02-22T13:59:31.506Z,78.20
2023-02-22T14:01:59.271Z,78.24
2023-02-22T14:04:28.836Z,77.87
2023-02-22T14:06:56.603Z,77.41
2023-02-22T14:09:51.888Z,77.41
2023-02-22T14:12:30.420Z,78.32
2023-02-22T14:15:29.745Z,79.16
2023-02-22T14:17:56.713Z,79.27
2023-02-22T14:20:36.100Z,79.32
2023-02-22T14:23:24.571Z,80.25
2023-02-22T14:25:51.599Z,79.50
2023-02-22T14:28:41.913Z,79.95
2023-02-22T14:31:15.473Z,79.90
2023-02-22T14:34:02.022Z,80.31
2023-02-22T14:36:30.539Z,80.75
2023-02-22T14:39:06.817Z,80.96
2023-02-22T14:41:33.571Z,80.86
2023-02-22T14:44:03.926Z,80.76
2023-02-22T14:46:33.468Z,81.21
2023-02-22T14:49:04.322Z,81.15
2023-02-22T14:51:42.829Z,81.44
2023-02-22T14:54:25.721Z,81.34
2023-02-22T14:57:14.955Z,81.97
2023-02-22T14:59:51.040Z,82.01
2023-02-22T15:02:19.599Z,82.69
2023-02-22T15:04:52.982Z,83.52
2023-02-22T15:07:27.323Z,83.62
2023-02-22T15:10:17.634Z,83.64
2023-02-22T15:12:52.248Z,84.31
2023-02-22T15:15:21.970Z,84.14
2023-02-22T15:17:58.483Z,84.96
2023-02-22T15:20:26.050Z,85.25
2023-02-22T15:35:59.553Z,87.43
2023-02-22T15:38:30.365Z,87.77
2023-02-22T15:41:04.845Z,87.59
2023-02-22T15:43:32.653Z,87.73
2023-02-22T15:45:59.849Z,88.10
2023-02-22T15:48:27.224Z,88.22
2023-02-22T15:51:10.594Z,88.76
2023-02-22T15:53:44.496Z,89.13
2023-02-22T15:56:35.311Z,89.39
2023-02-22T15:59:18.387Z,88.98
2023-02-22T16:01:46.702Z,89.73
2023-02-22T16:04:21.877Z,89.65
2023-02-22T16:06:49.194Z,89.68
2023-02-22T16:09:17.483Z,89.65
2023-02-22T16:11:45.928Z,90.05
2023-02-22T16:14:40.772Z,89.98
2023-02-22T16:17:35.318Z,90.01
2023-02-22T16:20:20.521Z,90.04
2023-02-22T16:22:51.372Z,90.26
2023-02-22T16:25:17.999Z,90.05
2023-02-22T16:28:01.527Z,90.16
2023-02-22T16:30:34.504Z,89.69
2023-02-22T16:33:05.559Z,89.15
2023-02-22T16:35:35.356Z,89.04
2023-02-22T16:38:07.582Z,88.64
2023-02-22T16:40:37.982Z,88.36
2023-02-22T16:43:12.276Z,88.27
2023-02-22T16:45:41.293Z,88.11
2023-02-22T16:48:15.848Z,88.07
2023-02-22T16:50:42.461Z,88.16
2023-02-22T16:53:09.155Z,87.81
2023-02-22T16:55:36.653Z,88.35
2023-02-22T16:58:04.206Z,88.03
2023-02-22T17:00:34.621Z,88.11
2023-02-22T17:03:03.957Z,87.80
2023-02-22T17:05:31.901Z,88.15
2023-02-22T17:07:58.549Z,88.23
2023-02-22T17:10:26.114Z,87.70
2023-02-22T17:12:53.389Z,87.67
2023-02-22T17:15:28.221Z,86.89
2023-02-22T17:17:55.902Z,86.90
2023-02-22T17:20:32.659Z,87.24
2023-02-22T17:23:01.184Z,87.35
2023-02-22T17:25:31.361Z,87.37
2023-02-22T17:27:57.881Z,87.85
2023-02-22T17:30:24.653Z,87.66
2023-02-22T17:32:52.264Z,87.64
2023-02-22T17:35:20.632Z,87.92
2023-02-22T17:37:48.043Z,87.95
2023-02-22T17:40:14.944Z,88.15
2023-02-22T17:42:42.891Z,88.33
2023-02-22T17:45:10.384Z,88.66
2023-02-22T17:47:36.989Z,88.89
2023-02-22T17:50:03.524Z,88.54
2023-02-22T17:52:30.241Z,88.49
2023-02-22T17:54:56.797Z,88.82
2023-02-22T17:57:23.343Z,88.71
2023-02-22T17:59:50.262Z,88.66
2023-02-22T18:02:16.872Z,88.94
2023-02-22T18:04:43.470Z,89.28
2023-02-22T18:07:09.976Z,89.06
2023-02-22T18:09:36.662Z,89.47
2023-02-22T18:12:03.318Z,89.92
2023-02-22T18:14:29.882Z,89.87
2023-02-22T18:16:56.406Z,89.88
2023-02-22T18:19:23.433Z,89.86
2023-02-22T18:21:50.137Z,89.77
2023-02-22T18:24:17.362Z,89.84
2023-02-22T18:26:43.924Z,89.96
2023-02-22T18:29:12.336Z,89.74
2023-02-22T18:31:38.902Z,89.71
2023-02-22T18:34:05.476Z,90.03
2023-02-22T18:36:32.455Z,89.80
2023-02-22T18:38:59.038Z,90.03
2023-02-22T18:41:25.796Z,90.23
2023-02-22T18:43:55.172Z,89.97
2023-02-22T18:46:23.460Z,89.90
2023-02-22T18:48:53.275Z,89.88
2023-02-22T18:51:19.854Z,89.36
2023-02-22T18:53:48.001Z,89.50
2023-02-22T18:56:17.841Z,89.73
2023-02-22T18:58:45.046Z,89.98
2023-02-22T19:01:17.206Z,89.42
2023-02-22T19:03:47.133Z,89.55
2023-02-22T19:06:14.537Z,89.59
2023-02-22T19:08:42.875Z,89.67
2023-02-22T19:11:21.644Z,89.55
2023-02-22T19:13:50.000Z,89.77
2023-02-22T19:16:21.812Z,89.55
2023-02-22T19:18:50.989Z,89.51
2023-02-22T19:21:18.307Z,89.87
2023-02-22T19:23:48.762Z,90.21
2023-02-22T19:26:20.846Z,90.16
2023-02-22T19:28:48.252Z,90.09
2023-02-22T19:31:21.458Z,90.08
2023-02-22T19:33:52.127Z,90.64
2023-02-22T19:36:19.910Z,90.77
2023-02-22T19:38:46.737Z,91.02
2023-02-22T19:41:17.744Z,91.20
2023-02-22T19:43:45.505Z,91.14
2023-02-22T19:46:12.513Z,91.20
2023-02-22T19:48:39.348Z,91.25
2023-02-22T19:51:08.522Z,91.72
2023-02-22T19:53:35.668Z,91.96
2023-02-22T19:56:09.920Z,91.86
2023-02-22T19:58:37.969Z,91.86
2023-02-22T20:01:15.353Z,92.55
2023-02-22T20:03:42.781Z,92.62
2023-02-22T20:06:11.523Z,93.16
2023-02-22T20:08:42.341Z,93.33
2023-02-22T20:11:10.520Z,93.79
2023-02-22T20:13:38.113Z,93.87
2023-02-22T20:16:05.032Z,94.15
2023-02-22T20:18:31.560Z,93.91
2023-02-22T20:20:58.057Z,94.37
2023-02-22T20:23:24.650Z,94.34
2023-02-22T20:25:55.579Z,94.41
2023-02-22T20:28:23.281Z,94.37
2023-02-22T20:30:51.572Z,94.70
2023-02-22T20:33:19.428Z,94.47
2023-02-22T20:35:46.758Z,94.51
2023-02-22T20:38:14.438Z,94.19
2023-02-22T20:40:42.314Z,94.25
2023-02-22T20:43:09.711Z,94.41
2023-02-22T20:45:37.568Z,94.56
2023-02-22T20:48:04.429Z,94.61
2023-02-22T20:50:31.775Z,94.57
2023-02-22T20:52:58.865Z,94.62
2023-02-22T20:55:25.860Z,94.63
2023-02-22T20:57:52.458Z,94.43
2023-02-22T21:00:19.130Z,94.58
2023-02-22T21:02:46.769Z,94.74
2023-02-22T21:05:13.904Z,94.61
2023-02-22T21:07:40.764Z,94.84
2023-02-22T21:10:07.433Z,94.79
2023-02-22T21:12:35.011Z,94.73
2023-02-22T21:15:01.553Z,94.95
2023-02-22T21:17:30.867Z,94.76
2023-02-22T21:19:58.384Z,94.63
2023-02-22T21:22:25.287Z,94.81
2023-02-22T21:24:52.129Z,94.79
2023-02-22T21:27:18.900Z,94.84
2023-02-22T21:29:45.474Z,94.63
2023-02-22T21:32:13.759Z,94.63
2023-02-22T21:34:40.532Z,94.61
2023-02-22T21:37:08.336Z,94.95
2023-02-22T21:39:35.474Z,94.99
2023-02-22T21:42:02.311Z,94.95
2023-02-22T21:44:29.655Z,95.20
2023-02-22T21:46:56.398Z,94.94
2023-02-22T21:49:23.282Z,95.08
2023-02-22T21:51:51.609Z,95.35
2023-02-22T21:54:18.667Z,95.33
2023-02-22T21:56:45.244Z,95.08
2023-02-22T21:59:14.753Z,95.31
2023-02-22T22:01:49.945Z,95.40
2023-02-22T22:04:21.563Z,95.56
2023-02-22T22:06:50.874Z,95.57
2023-02-22T22:09:21.916Z,95.48
2023-02-22T22:11:51.036Z,95.45
2023-02-22T22:14:23.386Z,95.47
2023-02-22T22:16:51.673Z,95.46
2023-02-22T22:19:18.461Z,95.51
2023-02-22T22:21:46.852Z,96.03
2023-02-22T22:24:13.451Z,95.60
2023-02-22T22:26:40.313Z,95.56
2023-02-22T22:29:10.396Z,95.50
2023-02-22T22:31:37.576Z,95.75
2023-02-22T22:34:04.153Z,95.43
2023-02-22T22:36:30.639Z,95.55
2023-02-22T22:39:00.964Z,95.71
2023-02-22T22:41:30.280Z,95.58
2023-02-22T22:43:56.801Z,95.56
2023-02-22T22:46:23.475Z,95.69
2023-02-22T22:48:50.060Z,95.55
2023-02-22T22:51:20.015Z,95.62
2023-02-22T22:53:48.164Z,95.79
2023-02-22T22:56:18.587Z,95.67
2023-02-22T22:58:53.897Z,95.72
2023-02-22T23:01:27.034Z,95.63
2023-02-22T23:04:02.492Z,95.79
2023-02-22T23:06:33.126Z,95.87
2023-02-22T23:09:11.816Z,95.78
2023-02-22T23:11:46.175Z,95.64
2023-02-22T23:14:14.959Z,95.68
2023-02-22T23:16:42.661Z,95.76
2023-02-22T23:19:09.323Z,95.75
2023-02-22T23:21:36.262Z,95.85
2023-02-22T23:24:06.361Z,95.73
2023-02-22T23:26:34.042Z,95.83
2023-02-22T23:29:01.000Z,95.71
2023-02-22T23:31:32.139Z,95.63
2023-02-22T23:33:59.132Z,95.88
2023-02-22T23:36:26.929Z,95.72
2023-02-22T23:38:54.268Z,95.66
2023-02-22T23:41:21.114Z,95.86
2023-02-22T23:43:47.773Z,95.92
2023-02-22T23:46:18.567Z,95.87
2023-02-22T23:48:51.022Z,95.83
2023-02-22T23:51:20.630Z,95.79
2023-02-22T23:53:48.824Z,96.08
2023-02-22T23:56:17.888Z,95.85
2023-02-22T23:58:47.115Z,95.93
